sensor_id;sensor_type;location;lat;lon;timestamp;P1;durP1;ratioP1;P2;durP2;ratioP2
79401;SDS011;68857;47.916;106.940;2023-11-22T00:02:07;8.00;;;1.70;;
79401;SDS011;68857;47.916;106.940;2023-11-22T00:04:34;8.75;;;2.58;;
79401;SDS011;68857;47.916;106.940;2023-11-22T00:07:01;8.48;;;2.17;;
79401;SDS011;68857;47.916;106.940;2023-11-22T00:09:27;4.25;;;1.48;;
79401;SDS011;68857;47.916;106.940;2023-11-22T00:11:54;4.25;;;1.25;;
79401;SDS011;68857;47.916;106.940;2023-11-22T00:14:21;6.95;;;1.83;;
79401;SDS011;68857;47.916;106.940;2023-11-22T00:16:48;5.53;;;1.92;;
79401;SDS011;68857;47.916;106.940;2023-11-22T00:19:15;7.85;;;2.70;;
79401;SDS011;68857;47.916;106.940;2023-11-22T00:21:43;5.72;;;2.55;;
79401;SDS011;68857;47.916;106.940;2023-11-22T00:24:10;6.45;;;1.92;;
79401;SDS011;68857;47.916;106.940;2023-11-22T00:26:37;5.93;;;2.50;;
79401;SDS011;68857;47.916;106.940;2023-11-22T00:29:04;6.25;;;1.73;;
79401;SDS011;68857;47.916;106.940;2023-11-22T00:31:30;5.53;;;2.13;;
79401;SDS011;68857;47.916;106.940;2023-11-22T00:33:57;9.15;;;2.47;;
79401;SDS011;68857;47.916;106.940;2023-11-22T00:36:24;10.77;;;3.92;;
79401;SDS011;68857;47.916;106.940;2023-11-22T00:38:51;10.07;;;2.85;;
79401;SDS011;68857;47.916;106.940;2023-11-22T00:41:17;10.00;;;2.25;;
79401;SDS011;68857;47.916;106.940;2023-11-22T00:43:44;9.35;;;2.60;;
79401;SDS011;68857;47.916;106.940;2023-11-22T00:46:11;9.70;;;3.10;;
79401;SDS011;68857;47.916;106.940;2023-11-22T00:48:38;9.63;;;3.10;;
79401;SDS011;68857;47.916;106.940;2023-11-22T00:51:04;8.43;;;3.10;;
79401;SDS011;68857;47.916;106.940;2023-11-22T00:53:34;12.40;;;3.55;;
79401;SDS011;68857;47.916;106.940;2023-11-22T00:56:04;8.80;;;2.65;;
79401;SDS011;68857;47.916;106.940;2023-11-22T00:58:31;8.15;;;2.38;;
79401;SDS011;68857;47.916;106.940;2023-11-22T01:00:58;7.05;;;2.97;;
79401;SDS011;68857;47.916;106.940;2023-11-22T01:03:25;9.60;;;2.90;;
79401;SDS011;68857;47.916;106.940;2023-11-22T01:05:52;8.77;;;2.38;;
79401;SDS011;68857;47.916;106.940;2023-11-22T01:08:19;7.30;;;2.95;;
79401;SDS011;68857;47.916;106.940;2023-11-22T01:10:45;6.65;;;2.65;;
79401;SDS011;68857;47.916;106.940;2023-11-22T01:13:12;8.35;;;2.70;;
79401;SDS011;68857;47.916;106.940;2023-11-22T01:15:40;5.75;;;2.17;;
79401;SDS011;68857;47.916;106.940;2023-11-22T01:18:07;7.82;;;3.13;;
79401;SDS011;68857;47.916;106.940;2023-11-22T01:23:00;4.93;;;2.00;;
79401;SDS011;68857;47.916;106.940;2023-11-22T01:25:27;4.55;;;1.30;;
79401;SDS011;68857;47.916;106.940;2023-11-22T01:27:54;5.18;;;1.33;;
79401;SDS011;68857;47.916;106.940;2023-11-22T01:30:21;7.32;;;1.45;;
79401;SDS011;68857;47.916;106.940;2023-11-22T01:32:48;5.07;;;1.55;;
79401;SDS011;68857;47.916;106.940;2023-11-22T01:35:14;7.57;;;1.95;;
79401;SDS011;68857;47.916;106.940;2023-11-22T01:37:41;5.38;;;1.75;;
79401;SDS011;68857;47.916;106.940;2023-11-22T01:40:08;4.43;;;1.65;;
79401;SDS011;68857;47.916;106.940;2023-11-22T01:45:03;5.85;;;1.80;;
79401;SDS011;68857;47.916;106.940;2023-11-22T01:47:30;4.88;;;1.70;;
79401;SDS011;68857;47.916;106.940;2023-11-22T01:49:57;7.65;;;2.55;;
79401;SDS011;68857;47.916;106.940;2023-11-22T01:52:24;8.60;;;2.25;;
79401;SDS011;68857;47.916;106.940;2023-11-22T01:54:52;8.00;;;2.28;;
79401;SDS011;68857;47.916;106.940;2023-11-22T01:57:20;7.40;;;2.63;;
79401;SDS011;68857;47.916;106.940;2023-11-22T01:59:47;5.53;;;1.80;;
79401;SDS011;68857;47.916;106.940;2023-11-22T02:02:14;5.78;;;2.05;;
79401;SDS011;68857;47.916;106.940;2023-11-22T02:04:40;6.25;;;1.98;;
79401;SDS011;68857;47.916;106.940;2023-11-22T02:07:07;8.32;;;2.42;;
79401;SDS011;68857;47.916;106.940;2023-11-22T02:09:34;6.70;;;2.40;;
79401;SDS011;68857;47.916;106.940;2023-11-22T02:12:01;8.25;;;2.88;;
79401;SDS011;68857;47.916;106.940;2023-11-22T02:14:28;6.65;;;2.50;;
79401;SDS011;68857;47.916;106.940;2023-11-22T02:16:55;6.30;;;2.25;;
79401;SDS011;68857;47.916;106.940;2023-11-22T02:19:24;7.93;;;2.42;;
79401;SDS011;68857;47.916;106.940;2023-11-22T02:21:50;7.60;;;2.22;;
79401;SDS011;68857;47.916;106.940;2023-11-22T02:24:17;5.57;;;1.60;;
79401;SDS011;68857;47.916;106.940;2023-11-22T02:26:44;5.13;;;1.95;;
79401;SDS011;68857;47.916;106.940;2023-11-22T02:29:11;4.05;;;1.42;;
79401;SDS011;68857;47.916;106.940;2023-11-22T02:31:42;7.22;;;1.55;;
79401;SDS011;68857;47.916;106.940;2023-11-22T02:34:08;4.43;;;1.35;;
79401;SDS011;68857;47.916;106.940;2023-11-22T02:36:35;5.72;;;1.58;;
79401;SDS011;68857;47.916;106.940;2023-11-22T02:41:28;5.18;;;1.60;;
79401;SDS011;68857;47.916;106.940;2023-11-22T02:43:56;5.72;;;1.30;;
79401;SDS011;68857;47.916;106.940;2023-11-22T02:48:49;4.95;;;2.03;;
79401;SDS011;68857;47.916;106.940;2023-11-22T02:53:42;4.32;;;1.13;;
79401;SDS011;68857;47.916;106.940;2023-11-22T02:56:11;3.25;;;0.77;;
79401;SDS011;68857;47.916;106.940;2023-11-22T02:58:37;5.30;;;1.38;;
79401;SDS011;68857;47.916;106.940;2023-11-22T03:01:04;3.80;;;0.90;;
79401;SDS011;68857;47.916;106.940;2023-11-22T03:03:33;2.15;;;0.77;;
79401;SDS011;68857;47.916;106.940;2023-11-22T03:06:00;4.00;;;1.15;;
79401;SDS011;68857;47.916;106.940;2023-11-22T03:08:26;3.55;;;1.08;;
79401;SDS011;68857;47.916;106.940;2023-11-22T03:10:53;4.45;;;1.27;;
79401;SDS011;68857;47.916;106.940;2023-11-22T03:13:20;4.30;;;1.27;;
79401;SDS011;68857;47.916;106.940;2023-11-22T03:18:13;2.95;;;1.10;;
79401;SDS011;68857;47.916;106.940;2023-11-22T03:20:41;4.95;;;1.40;;
79401;SDS011;68857;47.916;106.940;2023-11-22T03:23:08;2.65;;;1.08;;
79401;SDS011;68857;47.916;106.940;2023-11-22T03:25:38;2.30;;;0.98;;
79401;SDS011;68857;47.916;106.940;2023-11-22T03:28:05;3.17;;;0.80;;
79401;SDS011;68857;47.916;106.940;2023-11-22T03:30:31;2.30;;;0.85;;
79401;SDS011;68857;47.916;106.940;2023-11-22T03:32:59;2.65;;;0.80;;
79401;SDS011;68857;47.916;106.940;2023-11-22T03:35:26;3.60;;;1.38;;
79401;SDS011;68857;47.916;106.940;2023-11-22T03:37:52;2.70;;;1.10;;
79401;SDS011;68857;47.916;106.940;2023-11-22T03:40:19;3.33;;;1.10;;
79401;SDS011;68857;47.916;106.940;2023-11-22T03:42:46;5.57;;;1.38;;
79401;SDS011;68857;47.916;106.940;2023-11-22T03:45:12;3.40;;;1.10;;
79401;SDS011;68857;47.916;106.940;2023-11-22T03:47:39;2.05;;;0.90;;
79401;SDS011;68857;47.916;106.940;2023-11-22T03:50:06;3.60;;;0.98;;
79401;SDS011;68857;47.916;106.940;2023-11-22T03:52:33;3.55;;;1.10;;
79401;SDS011;68857;47.916;106.940;2023-11-22T03:55:00;2.42;;;0.80;;
79401;SDS011;68857;47.916;106.940;2023-11-22T03:57:29;2.85;;;0.70;;
79401;SDS011;68857;47.916;106.940;2023-11-22T03:59:55;3.42;;;0.70;;
79401;SDS011;68857;47.916;106.940;2023-11-22T04:02:23;3.60;;;0.77;;
79401;SDS011;68857;47.916;106.940;2023-11-22T04:04:49;2.50;;;0.60;;
79401;SDS011;68857;47.916;106.940;2023-11-22T04:07:16;2.67;;;1.00;;
79401;SDS011;68857;47.916;106.940;2023-11-22T04:09:44;3.72;;;0.88;;
79401;SDS011;68857;47.916;106.940;2023-11-22T04:12:11;3.38;;;0.90;;
79401;SDS011;68857;47.916;106.940;2023-11-22T04:14:37;2.50;;;0.77;;
79401;SDS011;68857;47.916;106.940;2023-11-22T04:17:04;1.95;;;0.55;;
79401;SDS011;68857;47.916;106.940;2023-11-22T04:19:31;2.67;;;0.63;;
79401;SDS011;68857;47.916;106.940;2023-11-22T04:21:58;2.90;;;0.88;;
79401;SDS011;68857;47.916;106.940;2023-11-22T04:24:24;2.97;;;1.05;;
79401;SDS011;68857;47.916;106.940;2023-11-22T04:26:52;3.72;;;1.35;;
79401;SDS011;68857;47.916;106.940;2023-11-22T04:29:18;3.30;;;0.73;;
79401;SDS011;68857;47.916;106.940;2023-11-22T04:31:45;3.17;;;1.30;;
79401;SDS011;68857;47.916;106.940;2023-11-22T04:34:12;4.07;;;1.20;;
79401;SDS011;68857;47.916;106.940;2023-11-22T04:36:39;4.32;;;0.90;;
79401;SDS011;68857;47.916;106.940;2023-11-22T04:39:06;3.67;;;0.90;;
79401;SDS011;68857;47.916;106.940;2023-11-22T04:41:33;3.22;;;1.05;;
79401;SDS011;68857;47.916;106.940;2023-11-22T04:44:00;3.78;;;1.13;;
79401;SDS011;68857;47.916;106.940;2023-11-22T04:46:27;1.95;;;0.68;;
79401;SDS011;68857;47.916;106.940;2023-11-22T04:48:53;2.78;;;0.70;;
79401;SDS011;68857;47.916;106.940;2023-11-22T04:51:20;1.45;;;0.43;;
79401;SDS011;68857;47.916;106.940;2023-11-22T04:53:47;3.72;;;0.68;;
79401;SDS011;68857;47.916;106.940;2023-11-22T04:56:14;2.55;;;0.70;;
79401;SDS011;68857;47.916;106.940;2023-11-22T04:58:42;2.20;;;0.60;;
79401;SDS011;68857;47.916;106.940;2023-11-22T05:01:08;2.72;;;0.82;;
79401;SDS011;68857;47.916;106.940;2023-11-22T05:03:35;5.97;;;1.50;;
79401;SDS011;68857;47.916;106.940;2023-11-22T05:06:03;7.43;;;1.55;;
79401;SDS011;68857;47.916;106.940;2023-11-22T05:08:30;2.15;;;0.77;;
79401;SDS011;68857;47.916;106.940;2023-11-22T05:10:57;3.67;;;0.80;;
79401;SDS011;68857;47.916;106.940;2023-11-22T05:13:24;3.72;;;0.80;;
79401;SDS011;68857;47.916;106.940;2023-11-22T05:15:51;2.38;;;0.80;;
79401;SDS011;68857;47.916;106.940;2023-11-22T05:18:18;2.80;;;0.95;;
79401;SDS011;68857;47.916;106.940;2023-11-22T05:20:45;2.60;;;0.90;;
79401;SDS011;68857;47.916;106.940;2023-11-22T05:23:13;3.10;;;0.85;;
79401;SDS011;68857;47.916;106.940;2023-11-22T05:25:40;2.70;;;0.60;;
79401;SDS011;68857;47.916;106.940;2023-11-22T05:28:07;3.28;;;0.80;;
79401;SDS011;68857;47.916;106.940;2023-11-22T05:30:34;1.80;;;0.60;;
79401;SDS011;68857;47.916;106.940;2023-11-22T05:33:00;3.28;;;0.70;;
79401;SDS011;68857;47.916;106.940;2023-11-22T05:35:27;2.10;;;0.70;;
79401;SDS011;68857;47.916;106.940;2023-11-22T05:37:54;2.38;;;0.70;;
79401;SDS011;68857;47.916;106.940;2023-11-22T05:40:21;1.83;;;0.63;;
79401;SDS011;68857;47.916;106.940;2023-11-22T05:42:48;6.65;;;1.05;;
79401;SDS011;68857;47.916;106.940;2023-11-22T05:45:15;1.80;;;0.60;;
79401;SDS011;68857;47.916;106.940;2023-11-22T05:47:41;1.95;;;0.47;;
79401;SDS011;68857;47.916;106.940;2023-11-22T05:50:08;2.45;;;0.88;;
79401;SDS011;68857;47.916;106.940;2023-11-22T05:55:01;1.80;;;0.63;;
79401;SDS011;68857;47.916;106.940;2023-11-22T05:57:29;2.53;;;0.80;;
79401;SDS011;68857;47.916;106.940;2023-11-22T06:02:22;1.55;;;0.50;;
79401;SDS011;68857;47.916;106.940;2023-11-22T06:04:49;1.73;;;0.77;;
79401;SDS011;68857;47.916;106.940;2023-11-22T06:07:16;3.45;;;1.10;;
79401;SDS011;68857;47.916;106.940;2023-11-22T06:09:43;4.25;;;1.48;;
79401;SDS011;68857;47.916;106.940;2023-11-22T06:12:10;5.18;;;1.50;;
79401;SDS011;68857;47.916;106.940;2023-11-22T06:14:37;3.25;;;1.38;;
79401;SDS011;68857;47.916;106.940;2023-11-22T06:17:03;4.38;;;1.35;;
79401;SDS011;68857;47.916;106.940;2023-11-22T06:19:30;3.22;;;1.02;;
79401;SDS011;68857;47.916;106.940;2023-11-22T06:21:57;5.22;;;1.50;;
79401;SDS011;68857;47.916;106.940;2023-11-22T06:24:24;3.00;;;0.95;;
79401;SDS011;68857;47.916;106.940;2023-11-22T06:26:51;3.30;;;1.02;;
79401;SDS011;68857;47.916;106.940;2023-11-22T06:29:18;2.78;;;0.63;;
79401;SDS011;68857;47.916;106.940;2023-11-22T06:31:45;2.60;;;0.82;;
79401;SDS011;68857;47.916;106.940;2023-11-22T06:34:12;2.20;;;1.38;;
79401;SDS011;68857;47.916;106.940;2023-11-22T06:36:39;2.22;;;0.80;;
79401;SDS011;68857;47.916;106.940;2023-11-22T06:39:06;3.38;;;0.68;;
79401;SDS011;68857;47.916;106.940;2023-11-22T06:41:34;4.75;;;1.00;;
79401;SDS011;68857;47.916;106.940;2023-11-22T06:44:01;2.30;;;0.88;;
79401;SDS011;68857;47.916;106.940;2023-11-22T06:46:28;5.28;;;1.70;;
79401;SDS011;68857;47.916;106.940;2023-11-22T06:48:55;2.85;;;0.80;;
79401;SDS011;68857;47.916;106.940;2023-11-22T06:51:22;2.65;;;1.02;;
79401;SDS011;68857;47.916;106.940;2023-11-22T06:53:49;4.55;;;0.85;;
79401;SDS011;68857;47.916;106.940;2023-11-22T06:56:17;3.53;;;1.02;;
79401;SDS011;68857;47.916;106.940;2023-11-22T07:01:10;3.80;;;0.90;;
79401;SDS011;68857;47.916;106.940;2023-11-22T07:06:04;4.22;;;0.88;;
79401;SDS011;68857;47.916;106.940;2023-11-22T07:08:31;2.55;;;0.95;;
79401;SDS011;68857;47.916;106.940;2023-11-22T07:10:57;3.05;;;1.20;;
79401;SDS011;68857;47.916;106.940;2023-11-22T07:13:24;3.88;;;1.20;;
79401;SDS011;68857;47.916;106.940;2023-11-22T07:15:52;3.78;;;1.17;;
79401;SDS011;68857;47.916;106.940;2023-11-22T07:18:19;3.55;;;1.10;;
79401;SDS011;68857;47.916;106.940;2023-11-22T07:20:49;2.75;;;0.68;;
79401;SDS011;68857;47.916;106.940;2023-11-22T07:23:18;3.13;;;0.68;;
79401;SDS011;68857;47.916;106.940;2023-11-22T07:25:46;3.00;;;0.77;;
79401;SDS011;68857;47.916;106.940;2023-11-22T07:28:13;2.13;;;0.82;;
79401;SDS011;68857;47.916;106.940;2023-11-22T07:30:40;2.85;;;0.73;;
79401;SDS011;68857;47.916;106.940;2023-11-22T07:33:07;3.40;;;1.00;;
79401;SDS011;68857;47.916;106.940;2023-11-22T07:35:34;4.45;;;1.20;;
79401;SDS011;68857;47.916;106.940;2023-11-22T07:38:01;4.85;;;2.55;;
79401;SDS011;68857;47.916;106.940;2023-11-22T07:40:29;3.15;;;1.63;;
79401;SDS011;68857;47.916;106.940;2023-11-22T07:42:56;3.58;;;0.77;;
79401;SDS011;68857;47.916;106.940;2023-11-22T07:45:23;2.40;;;0.60;;
79401;SDS011;68857;47.916;106.940;2023-11-22T07:47:50;4.22;;;0.93;;
79401;SDS011;68857;47.916;106.940;2023-11-22T07:50:18;2.92;;;0.70;;
79401;SDS011;68857;47.916;106.940;2023-11-22T07:52:45;3.50;;;1.10;;
79401;SDS011;68857;47.916;106.940;2023-11-22T07:55:14;3.28;;;0.60;;
79401;SDS011;68857;47.916;106.940;2023-11-22T07:57:43;3.33;;;1.10;;
79401;SDS011;68857;47.916;106.940;2023-11-22T08:00:11;3.88;;;1.23;;
79401;SDS011;68857;47.916;106.940;2023-11-22T08:02:38;3.38;;;0.80;;
79401;SDS011;68857;47.916;106.940;2023-11-22T08:05:05;3.92;;;1.10;;
79401;SDS011;68857;47.916;106.940;2023-11-22T08:07:35;2.05;;;1.00;;
79401;SDS011;68857;47.916;106.940;2023-11-22T08:10:09;5.80;;;1.30;;
79401;SDS011;68857;47.916;106.940;2023-11-22T08:12:42;2.60;;;1.33;;
79401;SDS011;68857;47.916;106.940;2023-11-22T08:15:13;4.65;;;1.55;;
79401;SDS011;68857;47.916;106.940;2023-11-22T08:17:41;4.70;;;1.30;;
79401;SDS011;68857;47.916;106.940;2023-11-22T08:20:08;4.20;;;1.23;;
79401;SDS011;68857;47.916;106.940;2023-11-22T08:22:42;3.28;;;0.80;;
79401;SDS011;68857;47.916;106.940;2023-11-22T08:25:11;5.28;;;1.80;;
79401;SDS011;68857;47.916;106.940;2023-11-22T08:30:05;6.63;;;1.48;;
79401;SDS011;68857;47.916;106.940;2023-11-22T08:32:31;5.95;;;1.08;;
79401;SDS011;68857;47.916;106.940;2023-11-22T08:34:58;5.00;;;1.30;;
79401;SDS011;68857;47.916;106.940;2023-11-22T08:37:25;6.15;;;1.92;;
79401;SDS011;68857;47.916;106.940;2023-11-22T08:39:52;8.75;;;2.58;;
79401;SDS011;68857;47.916;106.940;2023-11-22T08:44:45;6.70;;;2.20;;
79401;SDS011;68857;47.916;106.940;2023-11-22T08:47:12;7.57;;;1.90;;
79401;SDS011;68857;47.916;106.940;2023-11-22T08:49:39;6.85;;;2.75;;
79401;SDS011;68857;47.916;106.940;2023-11-22T08:52:07;12.80;;;2.53;;
79401;SDS011;68857;47.916;106.940;2023-11-22T08:54:34;8.57;;;3.17;;
79401;SDS011;68857;47.916;106.940;2023-11-22T08:57:00;9.27;;;2.65;;
79401;SDS011;68857;47.916;106.940;2023-11-22T08:59:27;5.93;;;3.13;;
79401;SDS011;68857;47.916;106.940;2023-11-22T09:01:54;6.65;;;1.83;;
79401;SDS011;68857;47.916;106.940;2023-11-22T09:04:21;7.97;;;2.40;;
79401;SDS011;68857;47.916;106.940;2023-11-22T09:06:49;5.85;;;1.90;;
79401;SDS011;68857;47.916;106.940;2023-11-22T09:09:16;6.53;;;2.00;;
79401;SDS011;68857;47.916;106.940;2023-11-22T09:11:45;8.60;;;3.53;;
79401;SDS011;68857;47.916;106.940;2023-11-22T09:14:11;7.10;;;2.13;;
79401;SDS011;68857;47.916;106.940;2023-11-22T09:16:38;12.32;;;3.33;;
79401;SDS011;68857;47.916;106.940;2023-11-22T09:19:05;8.07;;;2.50;;
79401;SDS011;68857;47.916;106.940;2023-11-22T09:21:33;7.85;;;3.13;;
79401;SDS011;68857;47.916;106.940;2023-11-22T09:24:00;8.75;;;2.33;;
79401;SDS011;68857;47.916;106.940;2023-11-22T09:26:27;6.95;;;2.30;;
79401;SDS011;68857;47.916;106.940;2023-11-22T09:28:55;8.45;;;2.97;;
79401;SDS011;68857;47.916;106.940;2023-11-22T09:31:21;8.23;;;2.30;;
79401;SDS011;68857;47.916;106.940;2023-11-22T09:36:15;8.23;;;2.28;;
79401;SDS011;68857;47.916;106.940;2023-11-22T09:38:43;8.55;;;3.05;;
79401;SDS011;68857;47.916;106.940;2023-11-22T09:41:10;10.15;;;2.70;;
79401;SDS011;68857;47.916;106.940;2023-11-22T09:43:37;6.72;;;2.45;;
79401;SDS011;68857;47.916;106.940;2023-11-22T09:46:05;8.45;;;3.00;;
79401;SDS011;68857;47.916;106.940;2023-11-22T09:48:34;11.98;;;3.22;;
79401;SDS011;68857;47.916;106.940;2023-11-22T09:51:08;10.18;;;3.47;;
79401;SDS011;68857;47.916;106.940;2023-11-22T09:53:47;7.68;;;2.58;;
79401;SDS011;68857;47.916;106.940;2023-11-22T09:56:16;8.05;;;2.83;;
79401;SDS011;68857;47.916;106.940;2023-11-22T09:58:44;6.43;;;2.80;;
79401;SDS011;68857;47.916;106.940;2023-11-22T10:01:11;4.38;;;1.77;;
79401;SDS011;68857;47.916;106.940;2023-11-22T10:03:38;9.95;;;2.85;;
79401;SDS011;68857;47.916;106.940;2023-11-22T10:06:05;10.15;;;4.28;;
79401;SDS011;68857;47.916;106.940;2023-11-22T10:08:33;8.68;;;2.80;;
79401;SDS011;68857;47.916;106.940;2023-11-22T10:11:01;9.48;;;3.58;;
79401;SDS011;68857;47.916;106.940;2023-11-22T10:13:29;10.30;;;2.88;;
79401;SDS011;68857;47.916;106.940;2023-11-22T10:15:56;7.75;;;3.33;;
79401;SDS011;68857;47.916;106.940;2023-11-22T10:18:34;8.68;;;2.88;;
79401;SDS011;68857;47.916;106.940;2023-11-22T10:21:01;9.10;;;3.88;;
79401;SDS011;68857;47.916;106.940;2023-11-22T10:23:28;7.50;;;2.60;;
79401;SDS011;68857;47.916;106.940;2023-11-22T10:25:55;10.73;;;3.92;;
79401;SDS011;68857;47.916;106.940;2023-11-22T10:28:23;8.70;;;3.38;;
79401;SDS011;68857;47.916;106.940;2023-11-22T10:30:53;11.93;;;3.83;;
79401;SDS011;68857;47.916;106.940;2023-11-22T10:33:20;12.05;;;4.50;;
79401;SDS011;68857;47.916;106.940;2023-11-22T10:35:51;15.35;;;3.88;;
79401;SDS011;68857;47.916;106.940;2023-11-22T10:38:20;9.98;;;3.75;;
79401;SDS011;68857;47.916;106.940;2023-11-22T10:40:47;6.20;;;2.05;;
79401;SDS011;68857;47.916;106.940;2023-11-22T10:43:17;7.93;;;2.30;;
79401;SDS011;68857;47.916;106.940;2023-11-22T10:45:44;5.38;;;1.58;;
79401;SDS011;68857;47.916;106.940;2023-11-22T10:48:16;9.57;;;2.67;;
79401;SDS011;68857;47.916;106.940;2023-11-22T10:50:44;6.45;;;2.88;;
79401;SDS011;68857;47.916;106.940;2023-11-22T10:53:12;9.70;;;3.25;;
79401;SDS011;68857;47.916;106.940;2023-11-22T10:55:41;6.43;;;2.78;;
79401;SDS011;68857;47.916;106.940;2023-11-22T10:58:12;6.93;;;2.90;;
79401;SDS011;68857;47.916;106.940;2023-11-22T11:00:40;6.47;;;2.35;;
79401;SDS011;68857;47.916;106.940;2023-11-22T11:03:11;5.10;;;1.92;;
79401;SDS011;68857;47.916;106.940;2023-11-22T11:05:42;9.05;;;3.35;;
79401;SDS011;68857;47.916;106.940;2023-11-22T11:08:11;7.78;;;2.58;;
79401;SDS011;68857;47.916;106.940;2023-11-22T11:10:39;8.50;;;2.60;;
79401;SDS011;68857;47.916;106.940;2023-11-22T11:13:10;9.30;;;2.70;;
79401;SDS011;68857;47.916;106.940;2023-11-22T11:15:40;10.75;;;3.15;;
79401;SDS011;68857;47.916;106.940;2023-11-22T11:18:12;8.80;;;2.65;;
79401;SDS011;68857;47.916;106.940;2023-11-22T11:20:56;9.27;;;2.90;;
79401;SDS011;68857;47.916;106.940;2023-11-22T11:23:25;8.00;;;2.58;;
79401;SDS011;68857;47.916;106.940;2023-11-22T11:25:53;13.48;;;3.47;;
79401;SDS011;68857;47.916;106.940;2023-11-22T11:28:21;9.07;;;2.22;;
79401;SDS011;68857;47.916;106.940;2023-11-22T11:33:18;12.98;;;3.78;;
79401;SDS011;68857;47.916;106.940;2023-11-22T11:35:48;8.45;;;3.30;;
79401;SDS011;68857;47.916;106.940;2023-11-22T11:38:21;9.93;;;3.05;;
79401;SDS011;68857;47.916;106.940;2023-11-22T11:40:53;8.35;;;2.80;;
79401;SDS011;68857;47.916;106.940;2023-11-22T11:46:09;11.93;;;3.20;;
79401;SDS011;68857;47.916;106.940;2023-11-22T11:48:36;8.98;;;2.42;;
79401;SDS011;68857;47.916;106.940;2023-11-22T11:51:03;8.73;;;2.83;;
79401;SDS011;68857;47.916;106.940;2023-11-22T11:53:32;7.93;;;2.58;;
79401;SDS011;68857;47.916;106.940;2023-11-22T11:55:59;6.45;;;2.05;;
79401;SDS011;68857;47.916;106.940;2023-11-22T11:58:25;6.97;;;2.28;;
79401;SDS011;68857;47.916;106.940;2023-11-22T12:00:54;8.40;;;2.42;;
79401;SDS011;68857;47.916;106.940;2023-11-22T12:03:21;11.73;;;3.22;;
79401;SDS011;68857;47.916;106.940;2023-11-22T12:05:49;8.70;;;2.53;;
79401;SDS011;68857;47.916;106.940;2023-11-22T12:08:16;8.40;;;3.05;;
79401;SDS011;68857;47.916;106.940;2023-11-22T12:10:44;6.40;;;2.72;;
79401;SDS011;68857;47.916;106.940;2023-11-22T12:13:18;8.57;;;2.50;;
79401;SDS011;68857;47.916;106.940;2023-11-22T12:15:44;8.75;;;2.15;;
79401;SDS011;68857;47.916;106.940;2023-11-22T12:18:11;6.13;;;1.85;;
79401;SDS011;68857;47.916;106.940;2023-11-22T12:20:38;6.80;;;2.33;;
79401;SDS011;68857;47.916;106.940;2023-11-22T12:23:05;8.30;;;2.33;;
79401;SDS011;68857;47.916;106.940;2023-11-22T12:27:59;5.78;;;2.60;;
79401;SDS011;68857;47.916;106.940;2023-11-22T12:30:32;6.90;;;2.40;;
79401;SDS011;68857;47.916;106.940;2023-11-22T12:33:04;4.97;;;2.00;;
79401;SDS011;68857;47.916;106.940;2023-11-22T12:35:32;4.95;;;2.20;;
79401;SDS011;68857;47.916;106.940;2023-11-22T12:38:02;4.72;;;2.35;;
79401;SDS011;68857;47.916;106.940;2023-11-22T12:40:29;5.60;;;1.92;;
79401;SDS011;68857;47.916;106.940;2023-11-22T12:42:57;6.57;;;1.98;;
79401;SDS011;68857;47.916;106.940;2023-11-22T12:45:24;5.45;;;1.95;;
79401;SDS011;68857;47.916;106.940;2023-11-22T12:47:51;6.93;;;1.80;;
79401;SDS011;68857;47.916;106.940;2023-11-22T12:50:31;7.45;;;2.00;;
79401;SDS011;68857;47.916;106.940;2023-11-22T12:52:59;6.20;;;1.85;;
79401;SDS011;68857;47.916;106.940;2023-11-22T12:55:26;9.05;;;1.75;;
79401;SDS011;68857;47.916;106.940;2023-11-22T12:57:56;6.30;;;1.90;;
79401;SDS011;68857;47.916;106.940;2023-11-22T13:00:25;5.35;;;1.73;;
79401;SDS011;68857;47.916;106.940;2023-11-22T13:02:54;5.93;;;2.15;;
79401;SDS011;68857;47.916;106.940;2023-11-22T13:05:22;6.25;;;1.83;;
79401;SDS011;68857;47.916;106.940;2023-11-22T13:07:49;7.82;;;2.00;;
79401;SDS011;68857;47.916;106.940;2023-11-22T13:10:17;9.57;;;2.70;;
79401;SDS011;68857;47.916;106.940;2023-11-22T13:12:44;10.50;;;2.63;;
79401;SDS011;68857;47.916;106.940;2023-11-22T13:15:13;9.05;;;3.13;;
79401;SDS011;68857;47.916;106.940;2023-11-22T13:17:41;8.35;;;2.72;;
79401;SDS011;68857;47.916;106.940;2023-11-22T13:20:08;9.88;;;3.35;;
79401;SDS011;68857;47.916;106.940;2023-11-22T13:22:42;13.57;;;3.90;;
79401;SDS011;68857;47.916;106.940;2023-11-22T13:25:08;10.65;;;3.08;;
79401;SDS011;68857;47.916;106.940;2023-11-22T13:27:45;7.40;;;2.72;;
79401;SDS011;68857;47.916;106.940;2023-11-22T13:30:15;7.40;;;2.20;;
79401;SDS011;68857;47.916;106.940;2023-11-22T13:32:49;8.98;;;3.15;;
79401;SDS011;68857;47.916;106.940;2023-11-22T13:35:16;10.77;;;2.58;;
79401;SDS011;68857;47.916;106.940;2023-11-22T13:37:43;7.70;;;2.22;;
79401;SDS011;68857;47.916;106.940;2023-11-22T13:40:11;8.00;;;2.05;;
79401;SDS011;68857;47.916;106.940;2023-11-22T13:42:47;5.05;;;1.40;;
79401;SDS011;68857;47.916;106.940;2023-11-22T13:45:15;7.22;;;1.90;;
79401;SDS011;68857;47.916;106.940;2023-11-22T13:47:46;6.43;;;1.55;;
79401;SDS011;68857;47.916;106.940;2023-11-22T13:50:14;6.95;;;2.00;;
79401;SDS011;68857;47.916;106.940;2023-11-22T13:52:44;3.53;;;1.80;;
79401;SDS011;68857;47.916;106.940;2023-11-22T13:55:11;3.78;;;1.13;;
79401;SDS011;68857;47.916;106.940;2023-11-22T13:57:38;6.00;;;1.40;;
79401;SDS011;68857;47.916;106.940;2023-11-22T14:00:06;4.45;;;1.40;;
79401;SDS011;68857;47.916;106.940;2023-11-22T14:02:44;4.30;;;1.25;;
79401;SDS011;68857;47.916;106.940;2023-11-22T14:05:11;3.80;;;1.33;;
79401;SDS011;68857;47.916;106.940;2023-11-22T14:07:38;6.47;;;1.50;;
79401;SDS011;68857;47.916;106.940;2023-11-22T14:10:05;5.63;;;1.20;;
79401;SDS011;68857;47.916;106.940;2023-11-22T14:12:32;3.67;;;1.00;;
79401;SDS011;68857;47.916;106.940;2023-11-22T14:15:00;3.42;;;1.52;;
79401;SDS011;68857;47.916;106.940;2023-11-22T14:17:30;3.25;;;1.02;;
79401;SDS011;68857;47.916;106.940;2023-11-22T14:22:23;2.63;;;0.80;;
79401;SDS011;68857;47.916;106.940;2023-11-22T14:27:17;1.65;;;0.90;;
79401;SDS011;68857;47.916;106.940;2023-11-22T14:29:45;2.25;;;0.85;;
79401;SDS011;68857;47.916;106.940;2023-11-22T14:32:14;1.90;;;0.82;;
79401;SDS011;68857;47.916;106.940;2023-11-22T14:37:11;1.67;;;0.40;;
79401;SDS011;68857;47.916;106.940;2023-11-22T14:39:38;3.53;;;0.85;;
79401;SDS011;68857;47.916;106.940;2023-11-22T14:42:05;1.35;;;0.68;;
79401;SDS011;68857;47.916;106.940;2023-11-22T14:46:59;0.52;;;0.50;;
79401;SDS011;68857;47.916;106.940;2023-11-22T14:49:35;0.75;;;0.40;;
79401;SDS011;68857;47.916;106.940;2023-11-22T14:52:01;1.58;;;0.30;;
79401;SDS011;68857;47.916;106.940;2023-11-22T14:54:29;1.75;;;0.47;;
79401;SDS011;68857;47.916;106.940;2023-11-22T14:56:56;1.75;;;0.50;;
79401;SDS011;68857;47.916;106.940;2023-11-22T14:59:27;1.17;;;0.77;;
79401;SDS011;68857;47.916;106.940;2023-11-22T15:01:55;3.42;;;0.90;;
79401;SDS011;68857;47.916;106.940;2023-11-22T15:04:23;3.03;;;1.13;;
79401;SDS011;68857;47.916;106.940;2023-11-22T15:09:17;7.20;;;1.98;;
79401;SDS011;68857;47.916;106.940;2023-11-22T15:11:44;7.55;;;2.15;;
79401;SDS011;68857;47.916;106.940;2023-11-22T15:14:10;11.35;;;2.63;;
79401;SDS011;68857;47.916;106.940;2023-11-22T15:16:37;9.80;;;3.17;;